sensor_id;sensor_type;location;lat;lon;timestamp;P1;durP1;ratioP1;P2;durP2;ratioP2
22502;SDS011;11418;48.118;9.992;2023-03-21T00:02:31;4.90;;;3.13;;
22502;SDS011;11418;48.118;9.992;2023-03-21T00:06:32;4.32;;;2.70;;
22502;SDS011;11418;48.118;9.992;2023-03-21T00:10:32;5.57;;;2.78;;
22502;SDS011;11418;48.118;9.992;2023-03-21T00:14:33;6.05;;;2.80;;
22502;SDS011;11418;48.118;9.992;2023-03-21T00:18:34;3.72;;;2.72;;
22502;SDS011;11418;48.118;9.992;2023-03-21T00:22:35;3.72;;;2.38;;
22502;SDS011;11418;48.118;9.992;2023-03-21T00:26:36;5.07;;;2.90;;
22502;SDS011;11418;48.118;9.992;2023-03-21T00:30:38;3.90;;;2.88;;
22502;SDS011;11418;48.118;9.992;2023-03-21T00:34:39;4.07;;;2.58;;
22502;SDS011;11418;48.118;9.992;2023-03-21T00:38:41;3.38;;;2.42;;
22502;SDS011;11418;48.118;9.992;2023-03-21T00:42:41;4.55;;;2.78;;
22502;SDS011;11418;48.118;9.992;2023-03-21T00:46:42;3.75;;;2.83;;
22502;SDS011;11418;48.118;9.992;2023-03-21T00:50:43;5.40;;;2.95;;
22502;SDS011;11418;48.118;9.992;2023-03-21T00:54:46;3.80;;;2.45;;
22502;SDS011;11418;48.118;9.992;2023-03-21T00:58:46;5.18;;;3.20;;
22502;SDS011;11418;48.118;9.992;2023-03-21T01:02:47;3.72;;;2.72;;
22502;SDS011;11418;48.118;9.992;2023-03-21T01:06:56;4.78;;;2.70;;
22502;SDS011;11418;48.118;9.992;2023-03-21T01:11:00;6.03;;;3.03;;
22502;SDS011;11418;48.118;9.992;2023-03-21T01:15:04;5.43;;;2.80;;
22502;SDS011;11418;48.118;9.992;2023-03-21T01:19:06;4.22;;;3.33;;
22502;SDS011;11418;48.118;9.992;2023-03-21T01:23:09;5.28;;;3.13;;
22502;SDS011;11418;48.118;9.992;2023-03-21T01:27:11;5.25;;;3.22;;
22502;SDS011;11418;48.118;9.992;2023-03-21T01:31:13;6.72;;;3.20;;
22502;SDS011;11418;48.118;9.992;2023-03-21T01:35:15;4.00;;;2.92;;
22502;SDS011;11418;48.118;9.992;2023-03-21T01:39:15;4.65;;;3.00;;
22502;SDS011;11418;48.118;9.992;2023-03-21T01:43:23;4.45;;;2.60;;
22502;SDS011;11418;48.118;9.992;2023-03-21T01:47:26;4.82;;;3.22;;
22502;SDS011;11418;48.118;9.992;2023-03-21T01:51:26;6.00;;;2.80;;
22502;SDS011;11418;48.118;9.992;2023-03-21T01:55:29;5.63;;;2.75;;
22502;SDS011;11418;48.118;9.992;2023-03-21T01:59:33;5.90;;;3.20;;
22502;SDS011;11418;48.118;9.992;2023-03-21T02:03:43;6.28;;;3.22;;
22502;SDS011;11418;48.118;9.992;2023-03-21T02:07:51;4.47;;;3.10;;
22502;SDS011;11418;48.118;9.992;2023-03-21T02:11:53;4.82;;;2.83;;
22502;SDS011;11418;48.118;9.992;2023-03-21T02:16:01;5.03;;;3.15;;
22502;SDS011;11418;48.118;9.992;2023-03-21T02:20:14;4.20;;;2.78;;
22502;SDS011;11418;48.118;9.992;2023-03-21T02:29:11;3.88;;;2.97;;
22502;SDS011;11418;48.118;9.992;2023-03-21T02:33:35;5.53;;;3.25;;
22502;SDS011;11418;48.118;9.992;2023-03-21T02:37:45;6.47;;;2.72;;
22502;SDS011;11418;48.118;9.992;2023-03-21T02:41:52;5.05;;;2.97;;
22502;SDS011;11418;48.118;9.992;2023-03-21T02:46:07;5.35;;;2.97;;
22502;SDS011;11418;48.118;9.992;2023-03-21T02:54:30;4.55;;;2.97;;
22502;SDS011;11418;48.118;9.992;2023-03-21T02:58:32;8.27;;;3.40;;
22502;SDS011;11418;48.118;9.992;2023-03-21T03:02:33;4.22;;;2.47;;
22502;SDS011;11418;48.118;9.992;2023-03-21T03:06:40;6.10;;;3.28;;
22502;SDS011;11418;48.118;9.992;2023-03-21T03:15:12;7.75;;;3.00;;
22502;SDS011;11418;48.118;9.992;2023-03-21T03:19:28;5.57;;;2.85;;
22502;SDS011;11418;48.118;9.992;2023-03-21T03:27:34;7.65;;;2.65;;
22502;SDS011;11418;48.118;9.992;2023-03-21T03:31:38;3.28;;;2.38;;
22502;SDS011;11418;48.118;9.992;2023-03-21T03:35:43;5.90;;;2.60;;
22502;SDS011;11418;48.118;9.992;2023-03-21T03:39:50;4.65;;;2.80;;
22502;SDS011;11418;48.118;9.992;2023-03-21T03:44:05;3.90;;;2.55;;
22502;SDS011;11418;48.118;9.992;2023-03-21T03:48:17;4.28;;;2.47;;
22502;SDS011;11418;48.118;9.992;2023-03-21T03:52:46;4.90;;;2.80;;
22502;SDS011;11418;48.118;9.992;2023-03-21T03:56:51;7.32;;;2.72;;
22502;SDS011;11418;48.118;9.992;2023-03-21T04:00:53;5.65;;;3.13;;
22502;SDS011;11418;48.118;9.992;2023-03-21T04:04:54;5.88;;;3.65;;
22502;SDS011;11418;48.118;9.992;2023-03-21T04:08:56;7.30;;;3.95;;
22502;SDS011;11418;48.118;9.992;2023-03-21T04:12:57;8.10;;;4.07;;
22502;SDS011;11418;48.118;9.992;2023-03-21T04:16:58;7.47;;;3.97;;
22502;SDS011;11418;48.118;9.992;2023-03-21T04:20:58;6.20;;;3.75;;
22502;SDS011;11418;48.118;9.992;2023-03-21T04:24:59;6.85;;;3.72;;
22502;SDS011;11418;48.118;9.992;2023-03-21T04:29:04;8.57;;;4.60;;
22502;SDS011;11418;48.118;9.992;2023-03-21T04:33:05;8.57;;;4.05;;
22502;SDS011;11418;48.118;9.992;2023-03-21T04:37:05;7.63;;;3.33;;
22502;SDS011;11418;48.118;9.992;2023-03-21T04:41:10;8.27;;;4.22;;
22502;SDS011;11418;48.118;9.992;2023-03-21T04:45:10;6.07;;;3.90;;
22502;SDS011;11418;48.118;9.992;2023-03-21T04:49:12;5.63;;;3.70;;
22502;SDS011;11418;48.118;9.992;2023-03-21T04:53:12;6.75;;;4.18;;
22502;SDS011;11418;48.118;9.992;2023-03-21T04:57:13;7.82;;;4.30;;
22502;SDS011;11418;48.118;9.992;2023-03-21T05:01:14;8.13;;;4.00;;
22502;SDS011;11418;48.118;9.992;2023-03-21T05:05:19;5.25;;;3.63;;
22502;SDS011;11418;48.118;9.992;2023-03-21T05:09:19;8.20;;;3.78;;
22502;SDS011;11418;48.118;9.992;2023-03-21T05:13:21;8.02;;;3.70;;
22502;SDS011;11418;48.118;9.992;2023-03-21T05:17:21;7.25;;;4.13;;
22502;SDS011;11418;48.118;9.992;2023-03-21T05:21:24;7.30;;;4.07;;
22502;SDS011;11418;48.118;9.992;2023-03-21T05:25:28;8.13;;;3.95;;
22502;SDS011;11418;48.118;9.992;2023-03-21T05:29:34;6.20;;;4.13;;
22502;SDS011;11418;48.118;9.992;2023-03-21T05:33:34;6.47;;;3.78;;
22502;SDS011;11418;48.118;9.992;2023-03-21T05:37:35;5.03;;;3.67;;
22502;SDS011;11418;48.118;9.992;2023-03-21T05:41:37;6.50;;;3.88;;
22502;SDS011;11418;48.118;9.992;2023-03-21T05:45:37;5.55;;;3.92;;
22502;SDS011;11418;48.118;9.992;2023-03-21T05:49:38;6.25;;;4.18;;
22502;SDS011;11418;48.118;9.992;2023-03-21T05:53:39;8.73;;;5.13;;
22502;SDS011;11418;48.118;9.992;2023-03-21T05:57:39;7.25;;;4.93;;
22502;SDS011;11418;48.118;9.992;2023-03-21T06:01:40;8.73;;;5.15;;
22502;SDS011;11418;48.118;9.992;2023-03-21T06:05:41;9.50;;;5.25;;
22502;SDS011;11418;48.118;9.992;2023-03-21T06:09:41;8.68;;;5.60;;
22502;SDS011;11418;48.118;9.992;2023-03-21T06:13:42;16.45;;;5.30;;
22502;SDS011;11418;48.118;9.992;2023-03-21T06:17:42;7.80;;;5.32;;
22502;SDS011;11418;48.118;9.992;2023-03-21T06:21:43;7.80;;;4.97;;
22502;SDS011;11418;48.118;9.992;2023-03-21T06:25:43;9.60;;;5.18;;
22502;SDS011;11418;48.118;9.992;2023-03-21T06:29:44;5.20;;;3.92;;
22502;SDS011;11418;48.118;9.992;2023-03-21T06:33:45;6.13;;;3.90;;
22502;SDS011;11418;48.118;9.992;2023-03-21T06:37:45;9.10;;;5.70;;
22502;SDS011;11418;48.118;9.992;2023-03-21T06:41:48;8.23;;;5.22;;
22502;SDS011;11418;48.118;9.992;2023-03-21T06:45:48;11.05;;;5.32;;
22502;SDS011;11418;48.118;9.992;2023-03-21T06:49:49;9.05;;;5.35;;
22502;SDS011;11418;48.118;9.992;2023-03-21T06:53:50;7.85;;;5.30;;
22502;SDS011;11418;48.118;9.992;2023-03-21T06:57:54;7.22;;;4.78;;
22502;SDS011;11418;48.118;9.992;2023-03-21T07:01:55;8.27;;;5.40;;
22502;SDS011;11418;48.118;9.992;2023-03-21T07:05:56;10.65;;;5.43;;
22502;SDS011;11418;48.118;9.992;2023-03-21T07:09:58;13.38;;;6.13;;
22502;SDS011;11418;48.118;9.992;2023-03-21T07:13:58;10.13;;;6.10;;
22502;SDS011;11418;48.118;9.992;2023-03-21T07:17:59;14.05;;;7.28;;
22502;SDS011;11418;48.118;9.992;2023-03-21T07:22:00;10.32;;;6.03;;
22502;SDS011;11418;48.118;9.992;2023-03-21T07:26:00;13.82;;;7.40;;
22502;SDS011;11418;48.118;9.992;2023-03-21T07:30:02;13.50;;;6.68;;
22502;SDS011;11418;48.118;9.992;2023-03-21T07:34:04;8.10;;;5.00;;
22502;SDS011;11418;48.118;9.992;2023-03-21T07:38:04;10.63;;;6.32;;
22502;SDS011;11418;48.118;9.992;2023-03-21T07:42:05;7.70;;;5.40;;
22502;SDS011;11418;48.118;9.992;2023-03-21T07:46:06;7.57;;;4.82;;
22502;SDS011;11418;48.118;9.992;2023-03-21T07:50:07;7.78;;;4.95;;
22502;SDS011;11418;48.118;9.992;2023-03-21T07:54:07;7.97;;;4.40;;
22502;SDS011;11418;48.118;9.992;2023-03-21T07:58:08;6.18;;;4.32;;
22502;SDS011;11418;48.118;9.992;2023-03-21T08:02:13;6.10;;;4.28;;
22502;SDS011;11418;48.118;9.992;2023-03-21T08:06:15;7.20;;;4.60;;
22502;SDS011;11418;48.118;9.992;2023-03-21T08:10:15;7.25;;;4.85;;
22502;SDS011;11418;48.118;9.992;2023-03-21T08:14:16;6.47;;;4.43;;
22502;SDS011;11418;48.118;9.992;2023-03-21T08:18:17;5.60;;;4.28;;
22502;SDS011;11418;48.118;9.992;2023-03-21T08:22:18;6.55;;;4.90;;
22502;SDS011;11418;48.118;9.992;2023-03-21T08:26:18;9.57;;;4.70;;
22502;SDS011;11418;48.118;9.992;2023-03-21T08:30:20;7.25;;;4.38;;
22502;SDS011;11418;48.118;9.992;2023-03-21T08:34:21;8.50;;;4.72;;
22502;SDS011;11418;48.118;9.992;2023-03-21T08:38:22;8.27;;;5.13;;
22502;SDS011;11418;48.118;9.992;2023-03-21T08:42:24;7.00;;;4.50;;
22502;SDS011;11418;48.118;9.992;2023-03-21T08:46:25;5.93;;;4.32;;
22502;SDS011;11418;48.118;9.992;2023-03-21T08:50:26;12.43;;;4.63;;
22502;SDS011;11418;48.118;9.992;2023-03-21T08:54:28;5.72;;;3.95;;
22502;SDS011;11418;48.118;9.992;2023-03-21T08:58:29;4.95;;;3.88;;
22502;SDS011;11418;48.118;9.992;2023-03-21T09:02:30;4.25;;;3.20;;
22502;SDS011;11418;48.118;9.992;2023-03-21T09:06:30;5.20;;;3.83;;
22502;SDS011;11418;48.118;9.992;2023-03-21T09:10:32;5.95;;;3.47;;
22502;SDS011;11418;48.118;9.992;2023-03-21T09:14:32;4.88;;;3.38;;
22502;SDS011;11418;48.118;9.992;2023-03-21T09:18:34;5.45;;;3.13;;
22502;SDS011;11418;48.118;9.992;2023-03-21T09:22:49;4.18;;;3.30;;
22502;SDS011;11418;48.118;9.992;2023-03-21T09:26:53;3.45;;;2.60;;
22502;SDS011;11418;48.118;9.992;2023-03-21T09:30:54;5.07;;;3.05;;
22502;SDS011;11418;48.118;9.992;2023-03-21T09:34:57;4.40;;;2.70;;
22502;SDS011;11418;48.118;9.992;2023-03-21T09:38:58;4.38;;;3.20;;
22502;SDS011;11418;48.118;9.992;2023-03-21T09:43:13;4.53;;;3.33;;
22502;SDS011;11418;48.118;9.992;2023-03-21T09:47:27;3.90;;;3.08;;
22502;SDS011;11418;48.118;9.992;2023-03-21T09:55:41;4.55;;;3.28;;
22502;SDS011;11418;48.118;9.992;2023-03-21T09:59:43;4.63;;;3.13;;
22502;SDS011;11418;48.118;9.992;2023-03-21T10:03:45;4.55;;;2.63;;
22502;SDS011;11418;48.118;9.992;2023-03-21T10:11:56;3.13;;;2.53;;
22502;SDS011;11418;48.118;9.992;2023-03-21T10:16:15;3.95;;;2.65;;
22502;SDS011;11418;48.118;9.992;2023-03-21T10:20:24;3.70;;;2.92;;
22502;SDS011;11418;48.118;9.992;2023-03-21T10:24:31;5.18;;;3.13;;
22502;SDS011;11418;48.118;9.992;2023-03-21T10:28:37;4.93;;;3.10;;
22502;SDS011;11418;48.118;9.992;2023-03-21T10:32:40;5.28;;;3.75;;
22502;SDS011;11418;48.118;9.992;2023-03-21T10:36:41;4.13;;;2.78;;
22502;SDS011;11418;48.118;9.992;2023-03-21T10:40:42;3.78;;;2.70;;
22502;SDS011;11418;48.118;9.992;2023-03-21T10:44:42;3.97;;;2.70;;
22502;SDS011;11418;48.118;9.992;2023-03-21T10:48:51;4.22;;;3.47;;
22502;SDS011;11418;48.118;9.992;2023-03-21T10:52:54;3.97;;;3.28;;
22502;SDS011;11418;48.118;9.992;2023-03-21T10:57:02;5.38;;;3.63;;
22502;SDS011;11418;48.118;9.992;2023-03-21T11:01:23;5.72;;;3.55;;
22502;SDS011;11418;48.118;9.992;2023-03-21T11:05:47;4.97;;;3.40;;
22502;SDS011;11418;48.118;9.992;2023-03-21T11:09:53;6.20;;;3.40;;
22502;SDS011;11418;48.118;9.992;2023-03-21T11:13:58;4.35;;;2.90;;
22502;SDS011;11418;48.118;9.992;2023-03-21T11:18:12;4.88;;;3.00;;
22502;SDS011;11418;48.118;9.992;2023-03-21T11:22:24;3.85;;;2.72;;
22502;SDS011;11418;48.118;9.992;2023-03-21T11:26:36;3.50;;;2.90;;
22502;SDS011;11418;48.118;9.992;2023-03-21T11:30:36;3.88;;;3.08;;
22502;SDS011;11418;48.118;9.992;2023-03-21T11:34:50;4.63;;;3.35;;
22502;SDS011;11418;48.118;9.992;2023-03-21T11:38:58;3.63;;;3.00;;
22502;SDS011;11418;48.118;9.992;2023-03-21T11:47:15;5.03;;;3.40;;
22502;SDS011;11418;48.118;9.992;2023-03-21T11:51:33;4.35;;;3.22;;
22502;SDS011;11418;48.118;9.992;2023-03-21T12:08:45;7.88;;;3.78;;
22502;SDS011;11418;48.118;9.992;2023-03-21T12:22:00;5.15;;;3.63;;
22502;SDS011;11418;48.118;9.992;2023-03-21T12:26:24;5.05;;;3.88;;
22502;SDS011;11418;48.118;9.992;2023-03-21T12:35:08;5.45;;;4.30;;
22502;SDS011;11418;48.118;9.992;2023-03-21T12:39:29;3.88;;;3.00;;
22502;SDS011;11418;48.118;9.992;2023-03-21T12:48:10;3.83;;;3.05;;
22502;SDS011;11418;48.118;9.992;2023-03-21T12:52:20;4.50;;;3.05;;
22502;SDS011;11418;48.118;9.992;2023-03-21T13:00:43;4.75;;;3.13;;
22502;SDS011;11418;48.118;9.992;2023-03-21T13:04:51;4.20;;;2.85;;
22502;SDS011;11418;48.118;9.992;2023-03-21T13:09:10;4.40;;;2.75;;
22502;SDS011;11418;48.118;9.992;2023-03-21T13:13:25;3.15;;;2.45;;
22502;SDS011;11418;48.118;9.992;2023-03-21T13:17:40;3.20;;;2.78;;
22502;SDS011;11418;48.118;9.992;2023-03-21T13:25:53;5.18;;;3.85;;
22502;SDS011;11418;48.118;9.992;2023-03-21T13:30:00;4.05;;;3.33;;
22502;SDS011;11418;48.118;9.992;2023-03-21T13:34:06;5.57;;;3.90;;
22502;SDS011;11418;48.118;9.992;2023-03-21T13:42:22;4.38;;;3.70;;
22502;SDS011;11418;48.118;9.992;2023-03-21T13:50:32;4.93;;;3.90;;
22502;SDS011;11418;48.118;9.992;2023-03-21T13:54:51;14.57;;;5.03;;
22502;SDS011;11418;48.118;9.992;2023-03-21T13:58:59;4.80;;;3.80;;
22502;SDS011;11418;48.118;9.992;2023-03-21T14:03:05;6.43;;;4.03;;
22502;SDS011;11418;48.118;9.992;2023-03-21T14:07:09;7.85;;;4.32;;
22502;SDS011;11418;48.118;9.992;2023-03-21T14:11:14;6.63;;;4.18;;
22502;SDS011;11418;48.118;9.992;2023-03-21T14:15:19;4.90;;;3.90;;
22502;SDS011;11418;48.118;9.992;2023-03-21T14:19:28;5.72;;;4.40;;
22502;SDS011;11418;48.118;9.992;2023-03-21T14:23:32;6.53;;;3.90;;
22502;SDS011;11418;48.118;9.992;2023-03-21T14:27:33;6.35;;;4.00;;
22502;SDS011;11418;48.118;9.992;2023-03-21T14:31:36;7.70;;;4.07;;
22502;SDS011;11418;48.118;9.992;2023-03-21T14:35:39;6.78;;;4.07;;
22502;SDS011;11418;48.118;9.992;2023-03-21T14:39:40;4.95;;;3.30;;
22502;SDS011;11418;48.118;9.992;2023-03-21T14:43:40;5.05;;;3.40;;
22502;SDS011;11418;48.118;9.992;2023-03-21T14:47:41;4.32;;;2.75;;
22502;SDS011;11418;48.118;9.992;2023-03-21T14:52:19;4.07;;;2.85;;
22502;SDS011;11418;48.118;9.992;2023-03-21T14:56:32;2.88;;;2.58;;
22502;SDS011;11418;48.118;9.992;2023-03-21T15:00:35;4.10;;;2.67;;
22502;SDS011;11418;48.118;9.992;2023-03-21T15:04:36;5.38;;;2.45;;
22502;SDS011;11418;48.118;9.992;2023-03-21T15:08:37;3.15;;;2.22;;
22502;SDS011;11418;48.118;9.992;2023-03-21T15:12:48;2.38;;;2.10;;
22502;SDS011;11418;48.118;9.992;2023-03-21T15:16:50;3.83;;;2.40;;
22502;SDS011;11418;48.118;9.992;2023-03-21T15:20:51;3.35;;;2.20;;
22502;SDS011;11418;48.118;9.992;2023-03-21T15:24:56;3.42;;;2.35;;
22502;SDS011;11418;48.118;9.992;2023-03-21T15:28:59;3.10;;;2.10;;
22502;SDS011;11418;48.118;9.992;2023-03-21T15:33:05;2.72;;;1.90;;
22502;SDS011;11418;48.118;9.992;2023-03-21T15:37:13;7.22;;;3.95;;
22502;SDS011;11418;48.118;9.992;2023-03-21T15:45:23;3.67;;;2.20;;
22502;SDS011;11418;48.118;9.992;2023-03-21T15:49:32;2.42;;;1.98;;
22502;SDS011;11418;48.118;9.992;2023-03-21T15:53:39;4.75;;;2.35;;
22502;SDS011;11418;48.118;9.992;2023-03-21T15:57:42;5.28;;;2.22;;
22502;SDS011;11418;48.118;9.992;2023-03-21T16:01:46;11.25;;;2.95;;
22502;SDS011;11418;48.118;9.992;2023-03-21T16:10:35;5.15;;;2.60;;
22502;SDS011;11418;48.118;9.992;2023-03-21T16:14:36;2.63;;;2.10;;
22502;SDS011;11418;48.118;9.992;2023-03-21T16:18:37;3.58;;;2.22;;
22502;SDS011;11418;48.118;9.992;2023-03-21T16:22:38;3.08;;;2.13;;
22502;SDS011;11418;48.118;9.992;2023-03-21T16:26:42;2.55;;;2.30;;
22502;SDS011;11418;48.118;9.992;2023-03-21T16:30:45;3.30;;;2.47;;
22502;SDS011;11418;48.118;9.992;2023-03-21T16:34:45;3.08;;;2.10;;
22502;SDS011;11418;48.118;9.992;2023-03-21T16:38:46;3.47;;;2.35;;
22502;SDS011;11418;48.118;9.992;2023-03-21T16:42:48;5.30;;;2.20;;
22502;SDS011;11418;48.118;9.992;2023-03-21T16:46:49;4.03;;;2.33;;
22502;SDS011;11418;48.118;9.992;2023-03-21T16:50:50;4.25;;;2.42;;
22502;SDS011;11418;48.118;9.992;2023-03-21T16:54:50;5.35;;;2.63;;
22502;SDS011;11418;48.118;9.992;2023-03-21T16:58:54;4.22;;;3.00;;
22502;SDS011;11418;48.118;9.992;2023-03-21T17:02:58;4.18;;;3.65;;
22502;SDS011;11418;48.118;9.992;2023-03-21T17:07:00;4.30;;;3.65;;
22502;SDS011;11418;48.118;9.992;2023-03-21T17:11:01;3.38;;;2.80;;
22502;SDS011;11418;48.118;9.992;2023-03-21T17:15:05;3.97;;;2.60;;
22502;SDS011;11418;48.118;9.992;2023-03-21T17:19:10;4.80;;;2.80;;
22502;SDS011;11418;48.118;9.992;2023-03-21T17:23:12;6.82;;;2.45;;
22502;SDS011;11418;48.118;9.992;2023-03-21T17:27:13;5.43;;;2.83;;
22502;SDS011;11418;48.118;9.992;2023-03-21T17:31:19;3.20;;;2.70;;
22502;SDS011;11418;48.118;9.992;2023-03-21T17:35:21;4.90;;;3.20;;
22502;SDS011;11418;48.118;9.992;2023-03-21T17:39:23;9.95;;;3.85;;
22502;SDS011;11418;48.118;9.992;2023-03-21T17:43:25;7.15;;;3.40;;
22502;SDS011;11418;48.118;9.992;2023-03-21T17:47:26;4.20;;;3.03;;
22502;SDS011;11418;48.118;9.992;2023-03-21T17:51:28;6.25;;;4.38;;
22502;SDS011;11418;48.118;9.992;2023-03-21T17:55:29;3.53;;;2.83;;
22502;SDS011;11418;48.118;9.992;2023-03-21T17:59:30;6.40;;;4.28;;
22502;SDS011;11418;48.118;9.992;2023-03-21T18:03:31;7.32;;;3.58;;
22502;SDS011;11418;48.118;9.992;2023-03-21T18:07:31;5.32;;;3.50;;
22502;SDS011;11418;48.118;9.992;2023-03-21T18:11:33;6.97;;;4.90;;
22502;SDS011;11418;48.118;9.992;2023-03-21T18:15:34;5.32;;;3.72;;
22502;SDS011;11418;48.118;9.992;2023-03-21T18:19:34;6.50;;;3.55;;
22502;SDS011;11418;48.118;9.992;2023-03-21T18:23:37;6.22;;;3.75;;
22502;SDS011;11418;48.118;9.992;2023-03-21T18:27:39;6.30;;;3.20;;
22502;SDS011;11418;48.118;9.992;2023-03-21T18:31:40;7.05;;;3.55;;
22502;SDS011;11418;48.118;9.992;2023-03-21T18:35:42;8.35;;;4.60;;
22502;SDS011;11418;48.118;9.992;2023-03-21T18:39:42;11.68;;;6.45;;
22502;SDS011;11418;48.118;9.992;2023-03-21T18:43:44;10.52;;;6.07;;
22502;SDS011;11418;48.118;9.992;2023-03-21T18:47:44;9.95;;;5.68;;
22502;SDS011;11418;48.118;9.992;2023-03-21T18:51:45;14.88;;;5.88;;
22502;SDS011;11418;48.118;9.992;2023-03-21T18:55:47;8.43;;;5.05;;
22502;SDS011;11418;48.118;9.992;2023-03-21T18:59:47;7.22;;;4.95;;
22502;SDS011;11418;48.118;9.992;2023-03-21T19:03:48;6.75;;;4.50;;
22502;SDS011;11418;48.118;9.992;2023-03-21T19:07:49;6.32;;;4.43;;
22502;SDS011;11418;48.118;9.992;2023-03-21T19:11:50;6.43;;;4.38;;
22502;SDS011;11418;48.118;9.992;2023-03-21T19:15:51;6.22;;;4.43;;
22502;SDS011;11418;48.118;9.992;2023-03-21T19:19:52;5.88;;;4.25;;
22502;SDS011;11418;48.118;9.992;2023-03-21T19:23:52;7.32;;;4.47;;
22502;SDS011;11418;48.118;9.992;2023-03-21T19:27:53;10.60;;;4.38;;
22502;SDS011;11418;48.118;9.992;2023-03-21T19:31:54;6.45;;;3.92;;
22502;SDS011;11418;48.118;9.992;2023-03-21T19:35:55;8.75;;;4.25;;
22502;SDS011;11418;48.118;9.992;2023-03-21T19:39:55;5.65;;;3.83;;
22502;SDS011;11418;48.118;9.992;2023-03-21T19:43:56;9.05;;;3.88;;
22502;SDS011;11418;48.118;9.992;2023-03-21T19:47:56;6.28;;;4.35;;
22502;SDS011;11418;48.118;9.992;2023-03-21T19:51:57;5.32;;;4.57;;
22502;SDS011;11418;48.118;9.992;2023-03-21T19:55:57;7.40;;;4.55;;
22502;SDS011;11418;48.118;9.992;2023-03-21T19:59:58;7.30;;;4.93;;
22502;SDS011;11418;48.118;9.992;2023-03-21T20:03:58;13.18;;;7.97;;
22502;SDS011;11418;48.118;9.992;2023-03-21T20:07:59;13.88;;;7.93;;
22502;SDS011;11418;48.118;9.992;2023-03-21T20:12:00;19.45;;;10.18;;
22502;SDS011;11418;48.118;9.992;2023-03-21T20:16:01;15.35;;;8.70;;
22502;SDS011;11418;48.118;9.992;2023-03-21T20:20:02;17.30;;;10.35;;
22502;SDS011;11418;48.118;9.992;2023-03-21T20:24:09;17.63;;;11.05;;
22502;SDS011;11418;48.118;9.992;2023-03-21T20:28:11;13.90;;;9.07;;
22502;SDS011;11418;48.118;9.992;2023-03-21T20:32:12;13.88;;;8.70;;
22502;SDS011;11418;48.118;9.992;2023-03-21T20:36:13;13.05;;;8.23;;
22502;SDS011;11418;48.118;9.992;2023-03-21T20:40:14;12.75;;;8.07;;
22502;SDS011;11418;48.118;9.992;2023-03-21T20:44:16;14.55;;;9.38;;
22502;SDS011;11418;48.118;9.992;2023-03-21T20:48:18;17.60;;;9.50;;
22502;SDS011;11418;48.118;9.992;2023-03-21T20:52:18;14.20;;;7.97;;
22502;SDS011;11418;48.118;9.992;2023-03-21T20:56:19;15.00;;;8.75;;
22502;SDS011;11418;48.118;9.992;2023-03-21T21:00:20;15.25;;;9.10;;
22502;SDS011;11418;48.118;9.992;2023-03-21T21:04:21;15.63;;;8.98;;
22502;SDS011;11418;48.118;9.992;2023-03-21T21:08:22;17.25;;;8.60;;
22502;SDS011;11418;48.118;9.992;2023-03-21T21:12:23;13.75;;;8.35;;
22502;SDS011;11418;48.118;9.992;2023-03-21T21:16:27;13.20;;;7.40;;
22502;SDS011;11418;48.118;9.992;2023-03-21T21:20:28;12.43;;;6.93;;
22502;SDS011;11418;48.118;9.992;2023-03-21T21:24:28;8.77;;;6.13;;
22502;SDS011;11418;48.118;9.992;2023-03-21T21:28:30;9.25;;;5.57;;
22502;SDS011;11418;48.118;9.992;2023-03-21T21:32:31;10.00;;;5.78;;
22502;SDS011;11418;48.118;9.992;2023-03-21T21:36:32;10.18;;;6.18;;
22502;SDS011;11418;48.118;9.992;2023-03-21T21:40:33;11.15;;;6.65;;
22502;SDS011;11418;48.118;9.992;2023-03-21T21:44:33;10.20;;;6.80;;
22502;SDS011;11418;48.118;9.992;2023-03-21T21:48:36;11.85;;;6.28;;
22502;SDS011;11418;48.118;9.992;2023-03-21T21:52:39;9.75;;;6.85;;
22502;SDS011;11418;48.118;9.992;2023-03-21T21:56:43;13.85;;;6.70;;
22502;SDS011;11418;48.118;9.992;2023-03-21T22:00:47;11.57;;;5.75;;
22502;SDS011;11418;48.118;9.992;2023-03-21T22:04:49;10.90;;;6.32;;
22502;SDS011;11418;48.118;9.992;2023-03-21T22:08:52;15.23;;;8.30;;
22502;SDS011;11418;48.118;9.992;2023-03-21T22:12:53;15.10;;;7.45;;
22502;SDS011;11418;48.118;9.992;2023-03-21T22:16:53;12.55;;;7.35;;
22502;SDS011;11418;48.118;9.992;2023-03-21T22:20:54;23.83;;;10.55;;
22502;SDS011;11418;48.118;9.992;2023-03-21T22:24:54;17.38;;;9.38;;
22502;SDS011;11418;48.118;9.992;2023-03-21T22:28:55;16.83;;;8.93;;
22502;SDS011;11418;48.118;9.992;2023-03-21T22:32:56;16.50;;;8.90;;
22502;SDS011;11418;48.118;9.992;2023-03-21T22:36:57;11.68;;;6.25;;
22502;SDS011;11418;48.118;9.992;2023-03-21T22:40:59;8.45;;;5.38;;
22502;SDS011;11418;48.118;9.992;2023-03-21T22:45:01;10.13;;;5.50;;
22502;SDS011;11418;48.118;9.992;2023-03-21T22:49:04;8.88;;;5.45;;
22502;SDS011;11418;48.118;9.992;2023-03-21T22:53:05;7.88;;;4.78;;
22502;SDS011;11418;48.118;9.992;2023-03-21T22:57:06;7.45;;;4.85;;
22502;SDS011;11418;48.118;9.992;2023-03-21T23:01:07;7.07;;;4.65;;
22502;SDS011;11418;48.118;9.992;2023-03-21T23:05:08;8.98;;;5.88;;
22502;SDS011;11418;48.118;9.992;2023-03-21T23:09:09;7.05;;;4.72;;
22502;SDS011;11418;48.118;9.992;2023-03-21T23:13:10;8.77;;;5.22;;
22502;SDS011;11418;48.118;9.992;2023-03-21T23:17:10;10.23;;;5.85;;
22502;SDS011;11418;48.118;9.992;2023-03-21T23:21:11;9.63;;;5.30;;
22502;SDS011;11418;48.118;9.992;2023-03-21T23:25:12;12.20;;;5.53;;
22502;SDS011;11418;48.118;9.992;2023-03-21T23:29:13;6.65;;;4.35;;
22502;SDS011;11418;48.118;9.992;2023-03-21T23:33:13;6.85;;;4.60;;
22502;SDS011;11418;48.118;9.992;2023-03-21T23:37:14;7.90;;;5.03;;
22502;SDS011;11418;48.118;9.992;2023-03-21T23:41:16;7.47;;;4.72;;
22502;SDS011;11418;48.118;9.992;2023-03-21T23:45:18;6.95;;;4.43;;
22502;SDS011;11418;48.118;9.992;2023-03-21T23:49:19;8.30;;;4.72;;
22502;SDS011;11418;48.118;9.992;2023-03-21T23:53:19;9.93;;;5.03;;
22502;SDS011;11418;48.118;9.992;2023-03-21T23:57:20;7.18;;;4.75;;
